• Join FlightAware (Why Join?)
  • Login
  • US Flag 
08:33PM EDT


 

Airport Tracker/Info


-or-


 

Live Flight TrackerFlight Track Log ✈ TAM3871 ✈ 15-May-2013 ✈ SBBE / BEL - SBMA / MAB

Flight Track Log - Related Links

Times and Time Zones

All times are in EDT time to prevent confusion due to time zone crossing. See the TAM3871 flight status page for this flight to view local times or setup timezone preferences in your user account.

Time Position Orientation Groundspeed Altitude Reporting Facility
EDT Latitude Longitude Course Direction KTS MPH feet Rate Location/Type
01:38PM -2.9768 -48.7407 189° South  Level Estimated
01:39PM -3.0567 -48.7539 189° South  Level Estimated
01:40PM -3.1366 -48.7671 189° South  Level Estimated
01:41PM -3.2165 -48.7804 189° South  Level Estimated
01:42PM -3.2963 -48.7936 189° South  Level Estimated
01:43PM -3.3762 -48.8068 189° South  Level Estimated
01:44PM -3.4561 -48.8201 189° South  Level Estimated
01:45PM -3.5360 -48.8333 189° South  Level Estimated
01:46PM -3.6159 -48.8466 189° South  Level Estimated
01:47PM -3.6957 -48.8598 189° South  Level Estimated
01:48PM -3.7756 -48.8731 189° South  Level Estimated
01:49PM -3.8555 -48.8863 189° South  Level Estimated
01:50PM -3.9354 -48.8996 189° South  Level Estimated
01:51PM -4.0152 -48.9129 189° South  Level Estimated
01:52PM -4.0951 -48.9261 189° South  Level Estimated
01:53PM -4.1750 -48.9394 189° South  Level Estimated
01:54PM -4.2548 -48.9527 189° South  Level Estimated
01:55PM -4.3347 -48.9660 189° South  Level Estimated
01:56PM -4.4146 -48.9792 189° South  Level Estimated
01:57PM -4.4945 -48.9925 189° South  Level Estimated
01:58PM -4.5743 -49.0058 189° South  Level Estimated
01:59PM -4.6542 -49.0191 189° South  Level Estimated
02:00PM -4.7341 -49.0324 189° South  Level Estimated
02:01PM -4.8139 -49.0457 189° South  Level Estimated
02:02PM -4.8938 -49.0589 189° South  Level Estimated
02:03PM -4.9737 -49.0722 189° South  Level Estimated
02:04PM -5.0535 -49.0855 189° South  Level Estimated
02:05PM -5.1334 -49.0988 189° South  Level Estimated
02:06PM -5.2133 -49.1121 189° South  Level Estimated
02:07PM -5.2932 -49.1255 189° South  Level Estimated
02:08PM -5.3686 -49.1380 189° South  Level Estimated
02:09PM -5.3686 -49.1380 79° East  Level Estimated
02:10PM -5.3686 -49.1380 79° East  Level Estimated
02:11PM -5.3686 -49.1380 79° East  Level Estimated
02:12PM -5.3686 -49.1380 79° East  Level Estimated
02:13PM -5.3686 -49.1380 79° East  Level Estimated
02:14PM -5.3686 -49.1380 79° East  Level Estimated
02:15PM -5.3686 -49.1380 79° East  Level Estimated
02:16PM -5.3686 -49.1380 79° East  Level Estimated
02:17PM -5.3686 -49.1380 79° East  Level Estimated
02:18PM -5.3686 -49.1380 79° East  Level Estimated
02:19PM -5.3686 -49.1380 79° East  Level Estimated
02:20PM -5.3686 -49.1380 79° East  Level Estimated
02:21PM -5.3686 -49.1380 79° East  Level Estimated
02:22PM -5.3686 -49.1380 79° East  Level Estimated